createdAt,value
2023-04-29T00:00:55.476Z,99
2023-04-29T00:01:10.410Z,99
2023-04-29T00:02:16.541Z,99
2023-04-29T00:02:40.790Z,99
2023-04-29T00:03:11.643Z,99
2023-04-29T00:03:42.317Z,99
2023-04-29T00:04:17.328Z,99
2023-04-29T00:04:59.945Z,99
2023-04-29T00:05:40.606Z,99
2023-04-29T00:05:47.020Z,99
2023-04-29T00:06:26.002Z,99
2023-04-29T00:06:48.905Z,99
2023-04-29T00:07:19.148Z,99
2023-04-29T00:07:51.213Z,99
2023-04-29T00:08:21.382Z,99
2023-04-29T00:08:52.346Z,99
2023-04-29T00:09:24.941Z,99
2023-04-29T00:09:57.188Z,99
2023-04-29T00:12:31.656Z,99
2023-04-29T00:16:41.817Z,99
2023-04-29T00:24:50.891Z,99
2023-04-29T00:24:55.386Z,99
2023-04-29T00:25:37.752Z,99
2023-04-29T00:25:58.036Z,99
2023-04-29T00:26:29.347Z,99
2023-04-29T00:27:02.096Z,99
2023-04-29T00:27:36.169Z,99
2023-04-29T00:28:00.236Z,99
2023-04-29T00:28:31.800Z,99
2023-04-29T00:29:02.977Z,99
2023-04-29T00:29:34.387Z,99
2023-04-29T00:30:12.646Z,99
2023-04-29T00:30:54.383Z,99
2023-04-29T00:31:21.940Z,99
2023-04-29T00:31:37.679Z,99
2023-04-29T00:32:31.637Z,99
2023-04-29T00:32:40.417Z,99
2023-04-29T00:33:13.021Z,99
2023-04-29T00:33:45.796Z,99
2023-04-29T00:34:43.255Z,99
2023-04-29T00:35:17.836Z,99
2023-04-29T00:35:46.424Z,99
2023-04-29T00:36:17.444Z,99
2023-04-29T00:37:38.501Z,99
2023-04-29T00:37:49.031Z,99
2023-04-29T00:38:54.651Z,99
2023-04-29T00:39:59.739Z,99
2023-04-29T00:40:24.912Z,99
2023-04-29T00:40:56.918Z,99
2023-04-29T00:41:26.834Z,99
2023-04-29T00:41:58.893Z,99
2023-04-29T00:42:28.717Z,99
2023-04-29T00:42:59.446Z,99
2023-04-29T00:43:30.266Z,99
2023-04-29T00:44:01.747Z,99
2023-04-29T00:44:32.589Z,99
2023-04-29T00:45:08.736Z,99
2023-04-29T00:45:37.044Z,99
2023-04-29T00:46:38.160Z,99
2023-04-29T00:47:10.469Z,99
2023-04-29T00:47:39.124Z,99
2023-04-29T00:48:09.627Z,99
2023-04-29T00:48:41.278Z,99
2023-04-29T00:49:11.777Z,99
2023-04-29T00:49:45.891Z,99
2023-04-29T00:50:22.498Z,99
2023-04-29T00:50:47.345Z,99
2023-04-29T00:51:19.195Z,99
2023-04-29T00:51:48.722Z,99
2023-04-29T00:52:18.962Z,99
2023-04-29T00:52:49.418Z,99
2023-04-29T00:53:19.532Z,99
2023-04-29T00:53:58.574Z,99
2023-04-29T00:54:24.198Z,99
2023-04-29T00:54:52.854Z,99
2023-04-29T00:55:23.892Z,99
2023-04-29T00:55:55.737Z,99
2023-04-29T00:56:27.886Z,99
2023-04-29T00:56:59.152Z,99
2023-04-29T00:57:28.991Z,99
2023-04-29T00:57:59.250Z,99
2023-04-29T00:58:30.159Z,99
2023-04-29T00:59:00.892Z,99
2023-04-29T00:59:31.495Z,99
2023-04-29T01:00:05.834Z,99
2023-04-29T01:00:35.356Z,99
2023-04-29T01:01:07.816Z,99
2023-04-29T01:01:49.471Z,99
2023-04-29T01:02:43.579Z,99
2023-04-29T01:02:49.785Z,99
2023-04-29T01:03:20.961Z,99
2023-04-29T01:03:51.868Z,99
2023-04-29T01:04:22.619Z,99
2023-04-29T01:04:53.495Z,99
2023-04-29T01:05:24.204Z,99
2023-04-29T01:05:57.086Z,99
2023-04-29T01:06:27.185Z,99
2023-04-29T01:06:58.638Z,99
2023-04-29T01:07:29.377Z,99
2023-04-29T01:07:59.713Z,99
2023-04-29T01:08:32.042Z,99
2023-04-29T01:09:01.338Z,99
2023-04-29T01:09:31.914Z,99
2023-04-29T01:10:03.675Z,99
2023-04-29T01:10:51.032Z,99
2023-04-29T01:11:08.897Z,99
2023-04-29T01:11:38.438Z,99
2023-04-29T01:12:19.171Z,99
2023-04-29T01:12:41.053Z,99
2023-04-29T01:13:10.916Z,99
2023-04-29T01:13:41.777Z,99
2023-04-29T01:14:11.399Z,99
2023-04-29T01:14:45.084Z,99
2023-04-29T01:15:18.988Z,99
2023-04-29T01:15:44.844Z,99
2023-04-29T01:16:18.555Z,99
2023-04-29T01:16:48.605Z,99
2023-04-29T01:17:19.996Z,99
2023-04-29T01:17:48.421Z,99
2023-04-29T01:18:19.511Z,99
2023-04-29T01:18:50.544Z,99
2023-04-29T01:19:21.608Z,99
2023-04-29T01:20:23.625Z,99
2023-04-29T01:20:53.952Z,99
2023-04-29T01:23:22.682Z,99
2023-04-29T01:23:31.892Z,99
2023-04-29T01:24:01.510Z,99
2023-04-29T01:24:32.936Z,99
2023-04-29T01:25:02.613Z,99
2023-04-29T01:25:34.154Z,99
2023-04-29T01:26:05.203Z,99
2023-04-29T01:26:34.948Z,99
2023-04-29T01:27:05.547Z,99
2023-04-29T01:27:36.868Z,99
2023-04-29T01:28:09.063Z,99
2023-04-29T01:28:42.448Z,99
2023-04-29T01:29:10.056Z,99
2023-04-29T01:29:42.601Z,99
2023-04-29T01:30:14.954Z,99
2023-04-29T01:30:42.884Z,99
2023-04-29T01:31:49.661Z,99
2023-04-29T01:32:16.274Z,99
2023-04-29T01:32:50.690Z,99
2023-04-29T01:33:20.688Z,99
2023-04-29T01:33:50.394Z,99
2023-04-29T01:34:21.477Z,99
2023-04-29T01:34:52.523Z,99
2023-04-29T01:35:23.823Z,99
2023-04-29T01:35:54.595Z,99
2023-04-29T01:36:25.492Z,99
2023-04-29T01:36:55.434Z,99
2023-04-29T01:37:26.171Z,99
2023-04-29T01:37:58.585Z,99
2023-04-29T01:38:28.282Z,99
2023-04-29T01:39:00.971Z,99
2023-04-29T01:39:29.917Z,99
2023-04-29T01:40:02.653Z,99
2023-04-29T01:40:31.767Z,99
2023-04-29T01:41:03.062Z,99
2023-04-29T01:41:36.073Z,99
2023-04-29T01:42:04.847Z,99
2023-04-29T01:42:53.448Z,99
2023-04-29T01:43:06.790Z,99
2023-04-29T01:43:41.104Z,99
2023-04-29T01:44:11.480Z,99
2023-04-29T01:44:41.948Z,99
2023-04-29T01:45:13.763Z,99
2023-04-29T01:45:43.324Z,99
2023-04-29T01:46:13.410Z,99
2023-04-29T01:46:44.749Z,99
2023-04-29T01:47:17.034Z,99
2023-04-29T01:47:46.550Z,99
2023-04-29T01:48:17.063Z,99
2023-04-29T01:48:49.074Z,99
2023-04-29T01:49:21.309Z,99
2023-04-29T01:49:52.855Z,99
2023-04-29T01:50:22.100Z,99
2023-04-29T01:50:52.999Z,99
2023-04-29T01:51:32.734Z,99
2023-04-29T01:51:54.473Z,99
2023-04-29T01:52:25.552Z,99
2023-04-29T01:52:56.039Z,99
2023-04-29T01:53:27.651Z,99
2023-04-29T01:54:01.389Z,99
2023-04-29T01:54:31.968Z,99
2023-04-29T01:55:03.299Z,99
2023-04-29T01:55:33.717Z,99
2023-04-29T01:56:02.696Z,99
2023-04-29T01:56:33.488Z,99
2023-04-29T01:57:04.631Z,99
2023-04-29T01:57:35.242Z,99
2023-04-29T01:58:05.820Z,99
2023-04-29T01:58:37.490Z,99
2023-04-29T01:59:08.506Z,99
2023-04-29T01:59:41.343Z,99
2023-04-29T02:00:15.547Z,99
2023-04-29T02:00:42.161Z,99
2023-04-29T02:01:12.452Z,99
2023-04-29T02:02:28.845Z,99
2023-04-29T02:02:45.086Z,99
2023-04-29T02:03:16.088Z,99
2023-04-29T02:03:47.066Z,99
2023-04-29T02:04:18.538Z,99
2023-04-29T02:04:52.247Z,99
2023-04-29T02:05:20.408Z,99
2023-04-29T02:06:08.566Z,99
2023-04-29T02:06:23.627Z,99
2023-04-29T02:07:26.779Z,99
2023-04-29T02:07:56.444Z,99
2023-04-29T02:08:55.728Z,99
2023-04-29T02:09:15.861Z,99
2023-04-29T02:09:28.432Z,99
2023-04-29T02:09:59.102Z,99
2023-04-29T02:10:33.285Z,99
2023-04-29T02:11:01.820Z,99
2023-04-29T02:11:34.138Z,99
2023-04-29T02:12:05.216Z,99
2023-04-29T02:12:36.847Z,99
2023-04-29T02:13:06.915Z,99
2023-04-29T02:13:37.029Z,98
2023-04-29T02:14:07.439Z,98
2023-04-29T02:14:38.860Z,98
2023-04-29T02:15:09.959Z,98
2023-04-29T02:15:40.834Z,98
2023-04-29T02:16:29.282Z,98
2023-04-29T02:16:44.329Z,98
2023-04-29T02:17:16.791Z,98
2023-04-29T02:17:45.325Z,98
2023-04-29T02:18:17.198Z,98
2023-04-29T02:18:46.731Z,98
2023-04-29T02:19:17.543Z,98
2023-04-29T02:19:48.254Z,98
2023-04-29T02:20:19.891Z,98
2023-04-29T02:20:50.729Z,98
2023-04-29T02:21:22.238Z,98
2023-04-29T02:21:54.580Z,98
2023-04-29T02:22:26.027Z,98
2023-04-29T02:22:58.281Z,98
2023-04-29T02:23:25.251Z,98
2023-04-29T02:23:56.337Z,98
2023-04-29T02:24:28.192Z,98
2023-04-29T02:24:58.382Z,98
2023-04-29T02:25:28.920Z,98
2023-04-29T02:26:01.119Z,98
2023-04-29T02:26:31.223Z,98
2023-04-29T02:27:02.650Z,98
2023-04-29T02:27:33.979Z,98
2023-04-29T02:28:06.307Z,98
2023-04-29T02:28:39.737Z,98
2023-04-29T02:29:07.991Z,98
2023-04-29T02:29:37.421Z,98
2023-04-29T02:30:11.254Z,98
2023-04-29T02:30:41.192Z,98
2023-04-29T02:31:11.184Z,98
2023-04-29T02:31:42.329Z,98
2023-04-29T02:32:14.422Z,98
2023-04-29T02:32:52.518Z,98
2023-04-29T02:33:17.933Z,98
2023-04-29T02:33:48.213Z,98
2023-04-29T02:34:18.597Z,98
2023-04-29T02:35:00.887Z,98
2023-04-29T02:35:19.599Z,98
2023-04-29T02:35:56.137Z,98
2023-04-29T02:36:20.753Z,98
2023-04-29T02:36:52.266Z,98
2023-04-29T02:37:22.613Z,98
2023-04-29T02:37:58.481Z,98
2023-04-29T02:38:27.057Z,98
2023-04-29T02:38:57.338Z,98
2023-04-29T02:39:29.043Z,99
2023-04-29T02:39:58.163Z,99
2023-04-29T02:40:29.884Z,99
2023-04-29T02:41:00.002Z,99
2023-04-29T02:41:31.808Z,99
2023-04-29T02:42:04.478Z,99
2023-04-29T02:42:33.202Z,99
2023-04-29T02:43:07.636Z,99
2023-04-29T02:43:36.419Z,99
2023-04-29T02:44:07.595Z,99
2023-04-29T02:44:38.725Z,99
2023-04-29T02:45:08.880Z,99
2023-04-29T02:45:38.573Z,99
2023-04-29T02:46:09.684Z,99
2023-04-29T02:46:41.560Z,99
2023-04-29T02:47:11.691Z,99
2023-04-29T02:47:43.094Z,99
2023-04-29T02:48:15.387Z,99
2023-04-29T02:48:45.838Z,99
2023-04-29T02:49:18.221Z,99
2023-04-29T02:49:48.856Z,99
2023-04-29T02:50:19.503Z,99
2023-04-29T02:50:49.670Z,99
2023-04-29T02:51:20.459Z,99
2023-04-29T02:51:51.927Z,99
2023-04-29T02:52:39.119Z,99
2023-04-29T02:52:55.794Z,99
2023-04-29T02:53:25.231Z,99
2023-04-29T02:53:57.242Z,99
2023-04-29T02:54:27.121Z,99
2023-04-29T02:54:57.446Z,99
2023-04-29T02:55:29.334Z,99
2023-04-29T02:55:58.327Z,99
2023-04-29T02:56:29.332Z,99
2023-04-29T02:57:00.891Z,99
2023-04-29T02:57:37.239Z,99
2023-04-29T02:58:02.748Z,99
2023-04-29T02:58:33.508Z,99
2023-04-29T02:59:07.563Z,99
2023-04-29T02:59:37.130Z,99
2023-04-29T03:00:24.861Z,99
2023-04-29T03:00:37.557Z,99
2023-04-29T03:01:09.796Z,99
2023-04-29T03:01:40.914Z,99
2023-04-29T03:02:11.751Z,99
2023-04-29T03:02:42.575Z,99
2023-04-29T03:03:13.182Z,99
2023-04-29T03:03:43.555Z,99
2023-04-29T03:04:15.651Z,99
2023-04-29T03:04:48.217Z,99
2023-04-29T03:05:18.812Z,99
2023-04-29T03:05:48.672Z,99
2023-04-29T03:06:18.686Z,99
2023-04-29T03:06:50.492Z,99
2023-04-29T03:07:21.858Z,99
2023-04-29T03:07:53.377Z,99
2023-04-29T03:08:40.945Z,99
2023-04-29T03:08:53.274Z,99
2023-04-29T03:09:24.457Z,99
2023-04-29T03:09:57.689Z,99
2023-04-29T03:10:30.225Z,99
2023-04-29T03:10:58.282Z,99
2023-04-29T03:11:30.753Z,99
2023-04-29T03:12:00.246Z,99
2023-04-29T03:12:31.561Z,99
2023-04-29T03:13:02.881Z,99
2023-04-29T03:13:34.342Z,99
2023-04-29T03:14:04.413Z,99
2023-04-29T03:14:39.485Z,99
2023-04-29T03:15:09.291Z,99
2023-04-29T03:15:40.187Z,99
2023-04-29T03:16:09.258Z,98
2023-04-29T03:16:39.521Z,99
2023-04-29T03:17:11.267Z,98
2023-04-29T03:17:41.367Z,98
2023-04-29T03:18:11.872Z,98
2023-04-29T03:18:43.202Z,98
2023-04-29T03:19:13.157Z,98
2023-04-29T03:19:44.451Z,98
2023-04-29T03:20:18.411Z,98
2023-04-29T03:20:50.599Z,98
2023-04-29T03:21:19.556Z,98
2023-04-29T03:21:50.750Z,98
2023-04-29T03:22:21.340Z,98
2023-04-29T03:22:52.639Z,98
2023-04-29T03:23:22.651Z,98
2023-04-29T03:23:53.070Z,98
2023-04-29T03:24:24.851Z,98
2023-04-29T03:24:54.738Z,98
2023-04-29T03:25:29.568Z,98
2023-04-29T03:26:00.058Z,98
2023-04-29T03:26:45.260Z,98
2023-04-29T03:26:59.822Z,98
2023-04-29T03:27:29.931Z,98
2023-04-29T03:28:01.385Z,98
2023-04-29T03:28:32.093Z,98
2023-04-29T03:29:02.981Z,98
2023-04-29T03:29:33.048Z,98
2023-04-29T03:30:05.466Z,98
2023-04-29T03:30:37.895Z,98
2023-04-29T03:31:08.278Z,98
2023-04-29T03:31:40.343Z,98
2023-04-29T03:32:10.679Z,98
2023-04-29T03:32:41.117Z,98
2023-04-29T03:33:11.694Z,98
2023-04-29T03:33:53.695Z,98
2023-04-29T03:34:12.794Z,98
2023-04-29T03:34:44.172Z,98
2023-04-29T03:35:16.057Z,99
2023-04-29T03:35:48.462Z,99
2023-04-29T03:36:18.221Z,99
2023-04-29T03:36:49.655Z,99
2023-04-29T03:37:20.864Z,99
2023-04-29T03:37:50.866Z,99
2023-04-29T03:38:21.188Z,99
2023-04-29T03:38:51.786Z,99
2023-04-29T03:39:22.557Z,99
2023-04-29T03:39:55.305Z,99
2023-04-29T03:40:25.209Z,99
2023-04-29T03:40:55.392Z,99
2023-04-29T03:41:43.900Z,99
2023-04-29T03:41:58.538Z,99
2023-04-29T03:42:30.686Z,99
2023-04-29T03:42:59.510Z,99
2023-04-29T03:43:30.967Z,99
2023-04-29T03:44:01.868Z,99
2023-04-29T03:44:32.573Z,99
2023-04-29T03:45:04.808Z,99
2023-04-29T03:45:35.351Z,99
2023-04-29T03:46:23.713Z,99
2023-04-29T03:46:37.220Z,99
2023-04-29T03:47:25.612Z,99
2023-04-29T03:47:41.364Z,99
2023-04-29T03:48:11.630Z,99
2023-04-29T03:48:42.186Z,99
2023-04-29T03:49:11.690Z,99
2023-04-29T03:49:43.305Z,99
2023-04-29T03:50:15.918Z,99
2023-04-29T03:50:49.716Z,99
2023-04-29T03:51:16.043Z,99
2023-04-29T03:51:49.394Z,99
2023-04-29T03:52:20.823Z,99
2023-04-29T03:52:51.973Z,99
2023-04-29T03:53:21.217Z,99
2023-04-29T03:53:51.721Z,99
2023-04-29T03:54:22.535Z,99
2023-04-29T03:54:53.234Z,99
2023-04-29T03:55:24.454Z,99
2023-04-29T03:55:54.621Z,99
2023-04-29T03:56:25.970Z,99
2023-04-29T03:56:58.501Z,99
2023-04-29T03:57:30.118Z,99
2023-04-29T03:58:01.490Z,99
2023-04-29T03:58:31.387Z,99
2023-04-29T03:59:01.911Z,99
2023-04-29T03:59:32.841Z,99
2023-04-29T04:00:03.937Z,99
2023-04-29T04:01:04.405Z,99
2023-04-29T04:01:35.461Z,99
2023-04-29T04:02:06.711Z,99
2023-04-29T04:02:38.946Z,99
2023-04-29T04:03:42.378Z,99
2023-04-29T04:04:11.960Z,99
2023-04-29T04:04:42.220Z,99
2023-04-29T04:05:13.703Z,99
2023-04-29T04:05:43.632Z,99
2023-04-29T04:06:14.827Z,99
2023-04-29T04:06:46.112Z,99
2023-04-29T04:07:17.111Z,99
2023-04-29T04:07:47.328Z,99
2023-04-29T04:08:22.736Z,99
2023-04-29T04:08:51.026Z,99
2023-04-29T04:09:23.969Z,99
2023-04-29T04:09:54.540Z,99
2023-04-29T04:10:28.376Z,99
2023-04-29T04:10:53.806Z,99
2023-04-29T04:11:26.166Z,99
2023-04-29T04:12:26.673Z,99
2023-04-29T04:12:57.945Z,99
2023-04-29T04:13:31.856Z,99
2023-04-29T04:14:33.351Z,99
2023-04-29T04:15:04.061Z,99
2023-04-29T04:15:36.328Z,99
2023-04-29T04:16:04.097Z,99
2023-04-29T04:16:53.594Z,99
2023-04-29T04:17:05.749Z,99
2023-04-29T04:17:37.012Z,99
2023-04-29T04:18:08.756Z,99
2023-04-29T04:18:39.053Z,99
2023-04-29T04:19:12.593Z,99
2023-04-29T04:19:43.593Z,99
2023-04-29T04:20:12.983Z,99
2023-04-29T04:20:45.567Z,99
2023-04-29T04:21:14.907Z,99
2023-04-29T04:22:03.457Z,99
2023-04-29T04:22:16.260Z,99
2023-04-29T04:22:47.314Z,99
2023-04-29T04:23:18.003Z,99
2023-04-29T04:23:48.979Z,99
2023-04-29T04:24:19.887Z,99
2023-04-29T04:24:53.207Z,99
2023-04-29T04:25:25.190Z,99
2023-04-29T04:25:55.340Z,99
2023-04-29T04:26:24.791Z,99
2023-04-29T04:26:55.668Z,99
2023-04-29T04:27:26.688Z,99
2023-04-29T04:27:57.652Z,99
2023-04-29T04:28:30.568Z,99
2023-04-29T04:29:02.911Z,99
2023-04-29T04:29:31.299Z,99
2023-04-29T04:30:32.656Z,99
2023-04-29T04:31:03.446Z,99
2023-04-29T04:31:34.680Z,99
2023-04-29T04:32:05.457Z,99
2023-04-29T04:32:37.220Z,99
2023-04-29T04:33:07.636Z,99
2023-04-29T04:33:37.740Z,99
2023-04-29T04:34:11.104Z,99
2023-04-29T04:34:41.593Z,99
2023-04-29T04:35:13.387Z,99
2023-04-29T04:35:43.133Z,99
2023-04-29T04:36:15.348Z,99
2023-04-29T04:36:45.988Z,99
2023-04-29T04:37:15.349Z,99
2023-04-29T04:37:46.353Z,99
2023-04-29T04:38:17.217Z,99
2023-04-29T04:38:48.992Z,99
2023-04-29T04:39:23.081Z,99
2023-04-29T04:39:52.033Z,99
2023-04-29T04:40:25.991Z,99
2023-04-29T04:40:54.923Z,99
2023-04-29T04:41:26.414Z,99
2023-04-29T04:41:55.552Z,99
2023-04-29T04:42:25.825Z,99
2023-04-29T04:42:55.661Z,99
2023-04-29T04:43:26.874Z,99
2023-04-29T04:43:58.688Z,99
2023-04-29T04:44:31.288Z,99
2023-04-29T04:45:03.240Z,99
2023-04-29T04:46:02.636Z,99
2023-04-29T04:46:33.850Z,99
2023-04-29T04:47:04.794Z,99
2023-04-29T04:48:07.957Z,99
2023-04-29T04:48:38.656Z,99
2023-04-29T04:49:12.114Z,99
2023-04-29T04:49:42.804Z,99
2023-04-29T04:50:11.589Z,99
2023-04-29T04:50:42.573Z,99
2023-04-29T04:51:12.845Z,99
2023-04-29T04:51:43.239Z,99
2023-04-29T04:52:45.428Z,99
2023-04-29T04:53:47.652Z,99
2023-04-29T04:54:18.197Z,99
2023-04-29T04:54:51.176Z,99
2023-04-29T04:55:20.267Z,99
2023-04-29T04:56:09.381Z,99
2023-04-29T04:56:23.963Z,99
2023-04-29T04:56:54.518Z,99
2023-04-29T04:57:26.751Z,99
2023-04-29T04:58:13.860Z,99
2023-04-29T04:58:26.126Z,99
2023-04-29T04:58:57.133Z,99
2023-04-29T04:59:29.104Z,99
2023-04-29T04:59:59.028Z,98
2023-04-29T05:00:30.383Z,98
2023-04-29T05:01:03.246Z,98
2023-04-29T05:01:33.994Z,98
2023-04-29T05:02:03.192Z,98
2023-04-29T05:02:34.109Z,98
2023-04-29T05:03:04.790Z,98
2023-04-29T05:03:35.971Z,98
2023-04-29T05:04:06.678Z,98
2023-04-29T05:04:38.525Z,98
2023-04-29T05:05:29.303Z,97
2023-04-29T05:05:46.024Z,97
2023-04-29T05:06:12.145Z,97
2023-04-29T05:06:59.298Z,97
2023-04-29T05:07:13.743Z,97
2023-04-29T05:07:44.664Z,97
2023-04-29T05:08:15.082Z,97
2023-04-29T05:08:45.928Z,97
2023-04-29T05:09:16.793Z,96
2023-04-29T05:09:47.820Z,96
2023-04-29T05:10:19.591Z,96
2023-04-29T05:10:50.322Z,96
2023-04-29T05:11:22.489Z,96
2023-04-29T05:11:52.933Z,96
2023-04-29T05:12:24.351Z,96
2023-04-29T05:12:54.590Z,96
2023-04-29T05:13:25.081Z,96
2023-04-29T05:13:56.243Z,96
2023-04-29T05:14:27.025Z,96
2023-04-29T05:14:58.222Z,96
2023-04-29T05:15:29.372Z,95
2023-04-29T05:15:59.565Z,95
2023-04-29T05:16:33.803Z,96
2023-04-29T05:17:03.491Z,96
2023-04-29T05:17:33.889Z,96
2023-04-29T05:18:04.706Z,96
2023-04-29T05:19:14.255Z,95
2023-04-29T05:19:37.564Z,95
2023-04-29T05:20:28.307Z,95
2023-04-29T05:20:41.487Z,95
2023-04-29T05:21:12.184Z,95
2023-04-29T05:21:43.095Z,95
2023-04-29T05:22:13.858Z,95
2023-04-29T05:22:43.560Z,95
2023-04-29T05:23:14.859Z,95
2023-04-29T05:23:46.058Z,95
2023-04-29T05:24:16.153Z,95
2023-04-29T05:24:46.722Z,95
2023-04-29T05:25:18.558Z,95
2023-04-29T05:25:49.094Z,94
2023-04-29T05:26:20.807Z,94
2023-04-29T05:26:53.887Z,95
2023-04-29T05:27:23.774Z,95
2023-04-29T05:27:54.405Z,94
2023-04-29T05:28:27.100Z,94
2023-04-29T05:28:54.957Z,94
2023-04-29T05:29:29.895Z,95
2023-04-29T05:29:57.217Z,95
2023-04-29T05:30:28.480Z,95
2023-04-29T05:30:59.055Z,95
2023-04-29T05:31:31.257Z,94
2023-04-29T05:32:03.236Z,94
2023-04-29T05:32:33.821Z,95
2023-04-29T05:33:04.024Z,95
2023-04-29T05:33:34.986Z,95
2023-04-29T05:34:05.588Z,95
2023-04-29T05:34:35.861Z,95
2023-04-29T05:35:07.591Z,94
2023-04-29T05:35:42.723Z,94
2023-04-29T05:36:09.269Z,95
2023-04-29T05:36:40.482Z,95
2023-04-29T05:37:57.149Z,94
2023-04-29T05:38:15.131Z,94
2023-04-29T05:38:45.580Z,94
2023-04-29T05:39:15.201Z,94
2023-04-29T05:39:46.349Z,93
2023-04-29T05:40:19.527Z,93
2023-04-29T05:40:47.914Z,93
2023-04-29T05:41:18.862Z,93
2023-04-29T05:41:50.781Z,93
2023-04-29T05:42:22.102Z,93
2023-04-29T05:42:54.195Z,93
2023-04-29T05:43:24.228Z,94
2023-04-29T05:43:55.349Z,93
2023-04-29T05:44:56.250Z,92
2023-04-29T05:45:27.177Z,93
2023-04-29T05:46:53.973Z,93
2023-04-29T05:47:01.773Z,93
2023-04-29T05:47:32.496Z,93
2023-04-29T05:48:04.683Z,93
2023-04-29T05:48:33.718Z,93
2023-04-29T05:49:06.059Z,93
2023-04-29T05:49:35.997Z,93
2023-04-29T05:50:06.429Z,93
2023-04-29T05:50:37.321Z,93
2023-04-29T05:51:09.443Z,93
2023-04-29T05:51:40.055Z,93
2023-04-29T05:52:13.465Z,93
2023-04-29T05:52:42.830Z,94
2023-04-29T05:53:14.314Z,94
2023-04-29T05:53:45.585Z,94
2023-04-29T05:54:15.212Z,94
2023-04-29T05:54:45.445Z,94
2023-04-29T05:55:16.223Z,93
2023-04-29T05:55:48.313Z,94
2023-04-29T05:56:18.306Z,94
2023-04-29T05:56:49.011Z,94
2023-04-29T05:57:37.380Z,93
2023-04-29T05:57:52.308Z,93
2023-04-29T05:58:24.536Z,93
2023-04-29T05:58:55.069Z,94
2023-04-29T05:59:24.782Z,93
2023-04-29T05:59:56.568Z,94
2023-04-29T06:00:29.374Z,94
2023-04-29T06:00:59.849Z,94
2023-04-29T06:01:28.058Z,93
2023-04-29T06:01:59.225Z,93
2023-04-29T06:02:30.348Z,94
2023-04-29T06:03:03.928Z,93
2023-04-29T06:03:35.345Z,93
2023-04-29T06:04:06.400Z,92
2023-04-29T06:04:55.110Z,92
2023-04-29T06:05:06.860Z,92
2023-04-29T06:05:36.709Z,93
2023-04-29T06:06:37.594Z,93
2023-04-29T06:07:10.063Z,93
2023-04-29T06:08:05.345Z,93
2023-04-29T06:08:11.412Z,93
2023-04-29T06:08:44.145Z,93
2023-04-29T06:09:26.398Z,93
2023-04-29T06:09:45.811Z,93
2023-04-29T06:10:17.671Z,93
2023-04-29T06:10:46.356Z,93
2023-04-29T06:11:17.432Z,93
2023-04-29T06:11:50.139Z,93
2023-04-29T06:12:20.732Z,93
2023-04-29T06:12:50.661Z,94
2023-04-29T06:13:24.725Z,94
2023-04-29T06:13:55.328Z,94
2023-04-29T06:14:26.936Z,94
2023-04-29T06:14:55.385Z,94
2023-04-29T06:15:28.094Z,94
2023-04-29T06:15:58.008Z,94
2023-04-29T06:16:27.680Z,94
2023-04-29T06:16:58.737Z,94
2023-04-29T06:17:29.775Z,94
2023-04-29T06:18:05.040Z,94
2023-04-29T06:19:05.848Z,94
2023-04-29T06:19:35.493Z,94
2023-04-29T06:20:06.243Z,94
2023-04-29T06:20:38.392Z,94
2023-04-29T06:21:07.494Z,94
2023-04-29T06:21:37.410Z,94
2023-04-29T06:22:08.410Z,94
2023-04-29T06:22:40.966Z,94
2023-04-29T06:23:11.235Z,94
2023-04-29T06:23:41.197Z,94
2023-04-29T06:24:15.553Z,94
2023-04-29T06:24:49.706Z,94
2023-04-29T06:25:15.908Z,94
2023-04-29T06:25:46.352Z,94
2023-04-29T06:26:17.732Z,94
2023-04-29T06:26:49.487Z,94
2023-04-29T06:27:20.425Z,94
2023-04-29T06:27:50.381Z,93
2023-04-29T06:28:20.593Z,94
2023-04-29T06:29:00.024Z,94
2023-04-29T06:29:26.503Z,94
2023-04-29T06:29:55.998Z,94
2023-04-29T06:30:48.816Z,94
2023-04-29T06:30:56.252Z,94
2023-04-29T06:31:27.426Z,95
2023-04-29T06:31:57.131Z,94
2023-04-29T06:32:28.477Z,94
2023-04-29T06:33:18.191Z,95
2023-04-29T06:33:31.617Z,94
2023-04-29T06:34:02.392Z,94
2023-04-29T06:34:40.987Z,94
2023-04-29T06:35:05.616Z,94
2023-04-29T06:35:35.311Z,94
2023-04-29T06:36:06.178Z,94
2023-04-29T06:36:36.658Z,94
2023-04-29T06:37:07.477Z,94
2023-04-29T06:37:39.214Z,94
2023-04-29T06:38:09.380Z,94
2023-04-29T06:38:40.613Z,94
2023-04-29T06:39:11.914Z,94
2023-04-29T06:39:46.072Z,94
2023-04-29T06:40:16.885Z,94
2023-04-29T06:40:47.501Z,94
2023-04-29T06:41:16.754Z,94
2023-04-29T06:42:10.485Z,94
2023-04-29T06:42:18.686Z,94
2023-04-29T06:42:51.018Z,94
2023-04-29T06:43:20.096Z,94
2023-04-29T06:43:54.118Z,94
2023-04-29T06:44:29.691Z,94
2023-04-29T06:45:00.990Z,94
2023-04-29T06:45:39.062Z,94
2023-04-29T06:45:58.073Z,94
2023-04-29T06:46:29.098Z,94
2023-04-29T06:46:58.652Z,94
2023-04-29T06:47:41.386Z,94
2023-04-29T06:48:18.000Z,94
2023-04-29T06:48:29.683Z,94
2023-04-29T06:49:00.248Z,94
2023-04-29T06:49:35.927Z,94
2023-04-29T06:50:06.331Z,94
2023-04-29T06:50:36.927Z,94
2023-04-29T06:51:06.287Z,94
2023-04-29T06:52:06.803Z,93
2023-04-29T06:52:48.413Z,93
2023-04-29T06:53:12.202Z,93
2023-04-29T06:53:40.821Z,93
2023-04-29T06:54:11.705Z,93
2023-04-29T06:54:45.917Z,93
2023-04-29T06:55:16.180Z,94
2023-04-29T06:55:47.382Z,93
2023-04-29T06:56:32.028Z,93
2023-04-29T06:56:46.545Z,93
2023-04-29T06:57:17.471Z,93
2023-04-29T06:57:48.256Z,94
2023-04-29T06:58:18.931Z,94
2023-04-29T06:58:50.083Z,94
2023-04-29T06:59:27.316Z,94
2023-04-29T07:00:08.749Z,93
2023-04-29T07:00:22.669Z,93
2023-04-29T07:00:54.723Z,94
2023-04-29T07:01:28.613Z,93
2023-04-29T07:01:56.805Z,94
2023-04-29T07:02:28.595Z,94
2023-04-29T07:02:58.519Z,94
2023-04-29T07:03:29.735Z,94
2023-04-29T07:04:00.933Z,94
2023-04-29T07:04:30.474Z,93
2023-04-29T07:05:02.129Z,93
2023-04-29T07:05:33.888Z,93
2023-04-29T07:06:06.165Z,93
2023-04-29T07:06:37.320Z,93
2023-04-29T07:07:07.139Z,93
2023-04-29T07:07:37.402Z,93
2023-04-29T07:08:08.504Z,94
2023-04-29T07:08:40.156Z,93
2023-04-29T07:09:09.467Z,94
2023-04-29T07:09:41.248Z,93
2023-04-29T07:10:29.782Z,93
2023-04-29T07:10:42.501Z,94
2023-04-29T07:11:17.531Z,93
2023-04-29T07:11:47.397Z,93
2023-04-29T07:12:16.964Z,93
2023-04-29T07:12:47.851Z,93
2023-04-29T07:13:18.343Z,93
2023-04-29T07:13:49.377Z,94
2023-04-29T07:14:20.141Z,93
2023-04-29T07:14:51.059Z,94
2023-04-29T07:15:27.663Z,94
2023-04-29T07:15:52.517Z,93
2023-04-29T07:16:25.591Z,93
2023-04-29T07:17:13.478Z,93
2023-04-29T07:17:27.744Z,93
2023-04-29T07:18:15.779Z,93
2023-04-29T07:18:28.706Z,93
2023-04-29T07:18:59.118Z,94
2023-04-29T07:19:30.587Z,94
2023-04-29T07:20:02.331Z,94
2023-04-29T07:20:35.151Z,94
2023-04-29T07:21:02.787Z,94
2023-04-29T07:21:36.183Z,94
2023-04-29T07:22:08.221Z,95
2023-04-29T07:22:37.797Z,94
2023-04-29T07:23:10.791Z,94
2023-04-29T07:23:49.027Z,93
2023-04-29T07:24:15.888Z,93
2023-04-29T07:25:13.959Z,94
2023-04-29T07:25:41.920Z,94
2023-04-29T07:26:12.660Z,94
2023-04-29T07:27:03.740Z,94
2023-04-29T07:27:14.685Z,94
2023-04-29T07:27:45.724Z,94
2023-04-29T07:28:17.226Z,94
2023-04-29T07:28:49.655Z,94
2023-04-29T07:29:34.287Z,94
2023-04-29T07:29:51.299Z,94
2023-04-29T07:30:22.423Z,94
2023-04-29T07:30:51.814Z,94
2023-04-29T07:31:22.813Z,94
2023-04-29T07:32:01.845Z,94
2023-04-29T07:32:32.886Z,94
2023-04-29T07:32:55.921Z,94
2023-04-29T07:33:28.874Z,94
2023-04-29T07:34:00.539Z,94
2023-04-29T07:34:32.913Z,94
2023-04-29T07:35:01.396Z,94
2023-04-29T07:35:30.385Z,94
2023-04-29T07:36:02.813Z,94
2023-04-29T07:36:36.212Z,94
2023-04-29T07:37:03.535Z,95
2023-04-29T07:37:34.813Z,95
2023-04-29T07:38:05.611Z,94
2023-04-29T07:38:39.084Z,94
2023-04-29T07:39:09.805Z,94
2023-04-29T07:39:40.636Z,93
2023-04-29T07:40:12.407Z,94
2023-04-29T07:40:41.521Z,94
2023-04-29T07:41:13.515Z,94
2023-04-29T07:41:44.194Z,94
2023-04-29T07:42:13.745Z,94
2023-04-29T07:42:46.325Z,94
2023-04-29T07:43:16.160Z,93
2023-04-29T07:43:48.595Z,94
2023-04-29T07:44:22.482Z,94
2023-04-29T07:44:51.756Z,94
2023-04-29T07:45:25.828Z,94
2023-04-29T07:45:53.553Z,94
2023-04-29T07:46:22.902Z,94
2023-04-29T07:46:59.918Z,94
2023-04-29T07:47:24.149Z,93
2023-04-29T07:47:54.713Z,93
2023-04-29T07:48:27.403Z,93
2023-04-29T07:48:58.727Z,94
2023-04-29T07:49:28.441Z,94
2023-04-29T07:50:00.456Z,94
2023-04-29T07:50:31.182Z,94
2023-04-29T07:51:01.638Z,93